sensor_id;sensor_type;location;lat;lon;timestamp;P1;durP1;ratioP1;P2;durP2;ratioP2
3953;SDS011;1991;48.682;9.030;2023-05-16T00:00:23;12.95;;;9.80;;
3953;SDS011;1991;48.682;9.030;2023-05-16T00:02:51;15.23;;;10.35;;
3953;SDS011;1991;48.682;9.030;2023-05-16T00:05:17;12.48;;;9.82;;
3953;SDS011;1991;48.682;9.030;2023-05-16T00:07:43;11.18;;;9.60;;
3953;SDS011;1991;48.682;9.030;2023-05-16T00:10:10;10.63;;;9.23;;
3953;SDS011;1991;48.682;9.030;2023-05-16T00:12:36;12.10;;;10.30;;
3953;SDS011;1991;48.682;9.030;2023-05-16T00:15:04;12.68;;;10.60;;
3953;SDS011;1991;48.682;9.030;2023-05-16T00:17:32;13.07;;;10.00;;
3953;SDS011;1991;48.682;9.030;2023-05-16T00:19:59;14.25;;;10.75;;
3953;SDS011;1991;48.682;9.030;2023-05-16T00:22:26;13.98;;;12.13;;
3953;SDS011;1991;48.682;9.030;2023-05-16T00:24:52;16.70;;;12.93;;
3953;SDS011;1991;48.682;9.030;2023-05-16T00:27:17;17.98;;;13.80;;
3953;SDS011;1991;48.682;9.030;2023-05-16T00:29:43;16.45;;;13.20;;
3953;SDS011;1991;48.682;9.030;2023-05-16T00:32:09;15.40;;;13.35;;
3953;SDS011;1991;48.682;9.030;2023-05-16T00:34:35;17.27;;;14.20;;
3953;SDS011;1991;48.682;9.030;2023-05-16T00:37:00;18.27;;;14.50;;
3953;SDS011;1991;48.682;9.030;2023-05-16T00:39:26;18.15;;;14.35;;
3953;SDS011;1991;48.682;9.030;2023-05-16T00:41:52;19.02;;;14.88;;
3953;SDS011;1991;48.682;9.030;2023-05-16T00:44:17;16.58;;;14.73;;
3953;SDS011;1991;48.682;9.030;2023-05-16T00:46:43;18.27;;;14.63;;
3953;SDS011;1991;48.682;9.030;2023-05-16T00:49:09;16.50;;;14.60;;
3953;SDS011;1991;48.682;9.030;2023-05-16T00:51:35;18.58;;;15.73;;
3953;SDS011;1991;48.682;9.030;2023-05-16T00:54:03;19.95;;;14.70;;
3953;SDS011;1991;48.682;9.030;2023-05-16T00:56:30;20.92;;;14.38;;
3953;SDS011;1991;48.682;9.030;2023-05-16T00:58:56;17.33;;;14.20;;
3953;SDS011;1991;48.682;9.030;2023-05-16T01:01:22;16.25;;;13.90;;
3953;SDS011;1991;48.682;9.030;2023-05-16T01:03:50;18.10;;;14.93;;
3953;SDS011;1991;48.682;9.030;2023-05-16T01:06:16;17.15;;;15.07;;
3953;SDS011;1991;48.682;9.030;2023-05-16T01:08:41;19.15;;;15.80;;
3953;SDS011;1991;48.682;9.030;2023-05-16T01:11:15;19.10;;;16.38;;
3953;SDS011;1991;48.682;9.030;2023-05-16T01:16:37;21.02;;;17.05;;
3953;SDS011;1991;48.682;9.030;2023-05-16T01:22:11;22.92;;;19.13;;
3953;SDS011;1991;48.682;9.030;2023-05-16T01:27:31;26.13;;;19.38;;
3953;SDS011;1991;48.682;9.030;2023-05-16T01:29:59;24.23;;;20.02;;
3953;SDS011;1991;48.682;9.030;2023-05-16T01:32:25;27.67;;;20.90;;
3953;SDS011;1991;48.682;9.030;2023-05-16T01:34:50;28.30;;;21.08;;
3953;SDS011;1991;48.682;9.030;2023-05-16T01:37:20;26.25;;;21.23;;
3953;SDS011;1991;48.682;9.030;2023-05-16T01:40:02;28.92;;;21.60;;
3953;SDS011;1991;48.682;9.030;2023-05-16T01:42:34;29.77;;;22.20;;
3953;SDS011;1991;48.682;9.030;2023-05-16T01:47:51;31.00;;;22.33;;
3953;SDS011;1991;48.682;9.030;2023-05-16T01:50:24;34.20;;;23.27;;
3953;SDS011;1991;48.682;9.030;2023-05-16T01:52:57;29.23;;;24.08;;
3953;SDS011;1991;48.682;9.030;2023-05-16T01:57:59;30.45;;;23.55;;
3953;SDS011;1991;48.682;9.030;2023-05-16T02:00:28;32.70;;;24.67;;
3953;SDS011;1991;48.682;9.030;2023-05-16T02:02:54;33.53;;;25.20;;
3953;SDS011;1991;48.682;9.030;2023-05-16T02:05:20;29.33;;;23.58;;
3953;SDS011;1991;48.682;9.030;2023-05-16T02:07:45;31.00;;;23.55;;
3953;SDS011;1991;48.682;9.030;2023-05-16T02:10:11;32.13;;;24.55;;
3953;SDS011;1991;48.682;9.030;2023-05-16T02:12:38;31.77;;;25.20;;
3953;SDS011;1991;48.682;9.030;2023-05-16T02:15:03;33.78;;;24.05;;
3953;SDS011;1991;48.682;9.030;2023-05-16T02:17:30;32.42;;;24.48;;
3953;SDS011;1991;48.682;9.030;2023-05-16T02:19:55;34.75;;;26.02;;
3953;SDS011;1991;48.682;9.030;2023-05-16T02:22:21;35.65;;;26.52;;
3953;SDS011;1991;48.682;9.030;2023-05-16T02:24:47;37.27;;;26.37;;
3953;SDS011;1991;48.682;9.030;2023-05-16T02:27:12;36.97;;;25.92;;
3953;SDS011;1991;48.682;9.030;2023-05-16T02:29:38;32.03;;;26.15;;
3953;SDS011;1991;48.682;9.030;2023-05-16T02:32:03;34.37;;;26.13;;
3953;SDS011;1991;48.682;9.030;2023-05-16T02:34:29;36.87;;;25.93;;
3953;SDS011;1991;48.682;9.030;2023-05-16T02:36:55;37.10;;;26.47;;
3953;SDS011;1991;48.682;9.030;2023-05-16T02:39:20;36.80;;;26.70;;
3953;SDS011;1991;48.682;9.030;2023-05-16T02:41:46;34.50;;;27.30;;
3953;SDS011;1991;48.682;9.030;2023-05-16T02:44:12;37.67;;;28.00;;
3953;SDS011;1991;48.682;9.030;2023-05-16T02:46:37;38.67;;;28.60;;
3953;SDS011;1991;48.682;9.030;2023-05-16T02:49:03;42.77;;;29.13;;
3953;SDS011;1991;48.682;9.030;2023-05-16T02:51:28;40.47;;;28.75;;
3953;SDS011;1991;48.682;9.030;2023-05-16T02:53:54;38.80;;;29.40;;
3953;SDS011;1991;48.682;9.030;2023-05-16T02:56:24;39.00;;;29.17;;
3953;SDS011;1991;48.682;9.030;2023-05-16T02:58:52;39.50;;;27.60;;
3953;SDS011;1991;48.682;9.030;2023-05-16T03:01:18;41.03;;;29.30;;
3953;SDS011;1991;48.682;9.030;2023-05-16T03:03:44;38.50;;;28.97;;
3953;SDS011;1991;48.682;9.030;2023-05-16T03:06:10;42.73;;;30.23;;
3953;SDS011;1991;48.682;9.030;2023-05-16T03:08:35;41.37;;;30.83;;
3953;SDS011;1991;48.682;9.030;2023-05-16T03:11:01;44.35;;;30.50;;
3953;SDS011;1991;48.682;9.030;2023-05-16T03:13:26;42.30;;;30.23;;
3953;SDS011;1991;48.682;9.030;2023-05-16T03:15:54;45.47;;;31.00;;
3953;SDS011;1991;48.682;9.030;2023-05-16T03:18:20;44.85;;;32.70;;
3953;SDS011;1991;48.682;9.030;2023-05-16T03:20:45;47.80;;;33.55;;
3953;SDS011;1991;48.682;9.030;2023-05-16T03:23:11;43.33;;;31.73;;
3953;SDS011;1991;48.682;9.030;2023-05-16T03:25:37;52.70;;;34.90;;
3953;SDS011;1991;48.682;9.030;2023-05-16T03:28:06;50.08;;;31.98;;
3953;SDS011;1991;48.682;9.030;2023-05-16T03:30:32;48.73;;;32.67;;
3953;SDS011;1991;48.682;9.030;2023-05-16T03:32:58;48.63;;;32.60;;
3953;SDS011;1991;48.682;9.030;2023-05-16T03:35:23;48.53;;;32.87;;
3953;SDS011;1991;48.682;9.030;2023-05-16T03:37:49;49.00;;;32.93;;
3953;SDS011;1991;48.682;9.030;2023-05-16T03:40:15;53.65;;;35.83;;
3953;SDS011;1991;48.682;9.030;2023-05-16T03:42:40;46.37;;;32.80;;
3953;SDS011;1991;48.682;9.030;2023-05-16T03:45:07;50.40;;;34.67;;
3953;SDS011;1991;48.682;9.030;2023-05-16T03:47:32;48.10;;;34.23;;
3953;SDS011;1991;48.682;9.030;2023-05-16T03:49:58;51.97;;;33.90;;
3953;SDS011;1991;48.682;9.030;2023-05-16T03:52:24;51.87;;;35.70;;
3953;SDS011;1991;48.682;9.030;2023-05-16T03:54:49;57.70;;;36.43;;
3953;SDS011;1991;48.682;9.030;2023-05-16T03:57:15;49.17;;;33.33;;
3953;SDS011;1991;48.682;9.030;2023-05-16T03:59:41;59.17;;;36.57;;
3953;SDS011;1991;48.682;9.030;2023-05-16T04:02:06;52.43;;;35.50;;
3953;SDS011;1991;48.682;9.030;2023-05-16T04:04:32;52.67;;;35.73;;
3953;SDS011;1991;48.682;9.030;2023-05-16T04:06:58;53.93;;;36.27;;
3953;SDS011;1991;48.682;9.030;2023-05-16T04:09:24;52.73;;;36.17;;
3953;SDS011;1991;48.682;9.030;2023-05-16T04:11:50;57.43;;;36.60;;
3953;SDS011;1991;48.682;9.030;2023-05-16T04:14:15;57.33;;;37.53;;
3953;SDS011;1991;48.682;9.030;2023-05-16T04:16:41;56.83;;;37.23;;
3953;SDS011;1991;48.682;9.030;2023-05-16T04:19:07;55.50;;;37.33;;
3953;SDS011;1991;48.682;9.030;2023-05-16T04:21:32;57.13;;;37.00;;
3953;SDS011;1991;48.682;9.030;2023-05-16T04:23:59;62.33;;;37.67;;
3953;SDS011;1991;48.682;9.030;2023-05-16T04:26:25;54.47;;;37.43;;
3953;SDS011;1991;48.682;9.030;2023-05-16T04:28:51;54.33;;;36.93;;
3953;SDS011;1991;48.682;9.030;2023-05-16T04:31:17;59.20;;;37.03;;
3953;SDS011;1991;48.682;9.030;2023-05-16T04:33:42;55.57;;;37.40;;
3953;SDS011;1991;48.682;9.030;2023-05-16T04:36:08;52.93;;;35.27;;
3953;SDS011;1991;48.682;9.030;2023-05-16T04:38:33;54.20;;;36.00;;
3953;SDS011;1991;48.682;9.030;2023-05-16T04:40:59;52.93;;;36.20;;
3953;SDS011;1991;48.682;9.030;2023-05-16T04:43:26;55.47;;;36.33;;
3953;SDS011;1991;48.682;9.030;2023-05-16T04:45:51;52.80;;;35.43;;
3953;SDS011;1991;48.682;9.030;2023-05-16T04:48:19;48.00;;;34.67;;
3953;SDS011;1991;48.682;9.030;2023-05-16T04:50:45;49.40;;;34.67;;
3953;SDS011;1991;48.682;9.030;2023-05-16T04:53:11;51.83;;;34.57;;
3953;SDS011;1991;48.682;9.030;2023-05-16T04:55:36;52.07;;;36.20;;
3953;SDS011;1991;48.682;9.030;2023-05-16T04:58:02;53.27;;;35.63;;
3953;SDS011;1991;48.682;9.030;2023-05-16T05:00:27;51.40;;;35.70;;
3953;SDS011;1991;48.682;9.030;2023-05-16T05:02:53;54.87;;;36.17;;
3953;SDS011;1991;48.682;9.030;2023-05-16T05:05:18;52.93;;;36.20;;
3953;SDS011;1991;48.682;9.030;2023-05-16T05:07:45;55.83;;;36.38;;
3953;SDS011;1991;48.682;9.030;2023-05-16T05:10:10;50.20;;;33.30;;
3953;SDS011;1991;48.682;9.030;2023-05-16T05:12:36;50.65;;;34.50;;
3953;SDS011;1991;48.682;9.030;2023-05-16T05:15:02;44.87;;;32.77;;
3953;SDS011;1991;48.682;9.030;2023-05-16T05:17:28;52.30;;;34.33;;
3953;SDS011;1991;48.682;9.030;2023-05-16T05:19:54;50.13;;;36.05;;
3953;SDS011;1991;48.682;9.030;2023-05-16T05:22:19;50.13;;;35.17;;
3953;SDS011;1991;48.682;9.030;2023-05-16T05:24:45;53.03;;;34.53;;
3953;SDS011;1991;48.682;9.030;2023-05-16T05:27:11;51.63;;;35.80;;
3953;SDS011;1991;48.682;9.030;2023-05-16T05:29:36;50.17;;;34.40;;
3953;SDS011;1991;48.682;9.030;2023-05-16T05:32:02;52.33;;;34.53;;
3953;SDS011;1991;48.682;9.030;2023-05-16T05:34:28;49.70;;;33.67;;
3953;SDS011;1991;48.682;9.030;2023-05-16T05:36:54;48.07;;;34.50;;
3953;SDS011;1991;48.682;9.030;2023-05-16T05:39:20;47.90;;;34.13;;
3953;SDS011;1991;48.682;9.030;2023-05-16T05:41:46;50.10;;;33.67;;
3953;SDS011;1991;48.682;9.030;2023-05-16T05:44:11;51.53;;;35.07;;
3953;SDS011;1991;48.682;9.030;2023-05-16T05:46:37;49.83;;;33.85;;
3953;SDS011;1991;48.682;9.030;2023-05-16T05:49:03;47.63;;;31.90;;
3953;SDS011;1991;48.682;9.030;2023-05-16T05:51:29;47.83;;;32.57;;
3953;SDS011;1991;48.682;9.030;2023-05-16T05:53:55;46.83;;;32.70;;
3953;SDS011;1991;48.682;9.030;2023-05-16T05:56:21;46.67;;;33.90;;
3953;SDS011;1991;48.682;9.030;2023-05-16T05:58:48;50.30;;;32.57;;
3953;SDS011;1991;48.682;9.030;2023-05-16T06:01:15;47.30;;;32.60;;
3953;SDS011;1991;48.682;9.030;2023-05-16T06:03:40;44.60;;;31.60;;
3953;SDS011;1991;48.682;9.030;2023-05-16T06:06:07;48.90;;;32.20;;
3953;SDS011;1991;48.682;9.030;2023-05-16T06:08:32;46.20;;;32.10;;
3953;SDS011;1991;48.682;9.030;2023-05-16T06:10:59;45.93;;;31.93;;
3953;SDS011;1991;48.682;9.030;2023-05-16T06:13:25;43.13;;;30.40;;
3953;SDS011;1991;48.682;9.030;2023-05-16T06:15:51;41.47;;;30.17;;
3953;SDS011;1991;48.682;9.030;2023-05-16T06:18:17;40.83;;;30.40;;
3953;SDS011;1991;48.682;9.030;2023-05-16T06:20:44;45.70;;;30.00;;
3953;SDS011;1991;48.682;9.030;2023-05-16T06:23:09;40.67;;;30.27;;
3953;SDS011;1991;48.682;9.030;2023-05-16T06:25:35;40.07;;;29.20;;
3953;SDS011;1991;48.682;9.030;2023-05-16T06:28:00;41.10;;;29.63;;
3953;SDS011;1991;48.682;9.030;2023-05-16T06:30:26;40.50;;;28.17;;
3953;SDS011;1991;48.682;9.030;2023-05-16T06:32:51;38.63;;;28.83;;
3953;SDS011;1991;48.682;9.030;2023-05-16T06:35:17;37.67;;;27.88;;
3953;SDS011;1991;48.682;9.030;2023-05-16T06:37:43;37.45;;;27.60;;
3953;SDS011;1991;48.682;9.030;2023-05-16T06:40:08;38.85;;;27.63;;
3953;SDS011;1991;48.682;9.030;2023-05-16T06:42:34;41.80;;;26.98;;
3953;SDS011;1991;48.682;9.030;2023-05-16T06:45:00;36.77;;;26.63;;
3953;SDS011;1991;48.682;9.030;2023-05-16T06:47:26;34.10;;;25.98;;
3953;SDS011;1991;48.682;9.030;2023-05-16T06:49:51;35.72;;;24.45;;
3953;SDS011;1991;48.682;9.030;2023-05-16T06:52:17;32.73;;;24.77;;
3953;SDS011;1991;48.682;9.030;2023-05-16T06:54:42;33.83;;;22.77;;
3953;SDS011;1991;48.682;9.030;2023-05-16T06:57:08;29.27;;;22.90;;
3953;SDS011;1991;48.682;9.030;2023-05-16T06:59:33;34.15;;;24.30;;
3953;SDS011;1991;48.682;9.030;2023-05-16T07:02:00;29.50;;;23.70;;
3953;SDS011;1991;48.682;9.030;2023-05-16T07:04:26;33.97;;;23.73;;
3953;SDS011;1991;48.682;9.030;2023-05-16T07:06:52;29.85;;;23.48;;
3953;SDS011;1991;48.682;9.030;2023-05-16T07:09:19;33.20;;;23.55;;
3953;SDS011;1991;48.682;9.030;2023-05-16T07:11:45;33.27;;;22.77;;
3953;SDS011;1991;48.682;9.030;2023-05-16T07:14:10;29.27;;;22.75;;
3953;SDS011;1991;48.682;9.030;2023-05-16T07:16:36;26.25;;;21.27;;
3953;SDS011;1991;48.682;9.030;2023-05-16T07:19:01;33.07;;;23.50;;
3953;SDS011;1991;48.682;9.030;2023-05-16T07:21:27;29.67;;;22.02;;
3953;SDS011;1991;48.682;9.030;2023-05-16T07:23:54;29.33;;;22.73;;
3953;SDS011;1991;48.682;9.030;2023-05-16T07:26:19;28.30;;;22.00;;
3953;SDS011;1991;48.682;9.030;2023-05-16T07:28:47;33.10;;;22.80;;
3953;SDS011;1991;48.682;9.030;2023-05-16T07:31:14;31.43;;;22.40;;
3953;SDS011;1991;48.682;9.030;2023-05-16T07:33:40;29.20;;;21.63;;
3953;SDS011;1991;48.682;9.030;2023-05-16T07:36:06;30.07;;;21.40;;
3953;SDS011;1991;48.682;9.030;2023-05-16T07:38:32;28.33;;;19.97;;
3953;SDS011;1991;48.682;9.030;2023-05-16T07:40:58;26.10;;;19.53;;
3953;SDS011;1991;48.682;9.030;2023-05-16T07:43:24;24.08;;;18.75;;
3953;SDS011;1991;48.682;9.030;2023-05-16T07:45:50;22.93;;;16.53;;
3953;SDS011;1991;48.682;9.030;2023-05-16T07:48:16;21.07;;;16.30;;
3953;SDS011;1991;48.682;9.030;2023-05-16T07:50:42;20.83;;;15.93;;
3953;SDS011;1991;48.682;9.030;2023-05-16T07:53:07;18.35;;;15.15;;
3953;SDS011;1991;48.682;9.030;2023-05-16T07:55:33;19.70;;;16.17;;
3953;SDS011;1991;48.682;9.030;2023-05-16T07:57:59;19.10;;;15.10;;
3953;SDS011;1991;48.682;9.030;2023-05-16T08:00:25;17.63;;;14.23;;
3953;SDS011;1991;48.682;9.030;2023-05-16T08:02:50;22.05;;;15.05;;
3953;SDS011;1991;48.682;9.030;2023-05-16T08:05:16;18.63;;;15.85;;
3953;SDS011;1991;48.682;9.030;2023-05-16T08:07:42;23.23;;;17.23;;
3953;SDS011;1991;48.682;9.030;2023-05-16T08:10:07;20.53;;;17.23;;
3953;SDS011;1991;48.682;9.030;2023-05-16T08:12:33;23.40;;;17.00;;
3953;SDS011;1991;48.682;9.030;2023-05-16T08:14:59;22.67;;;17.70;;
3953;SDS011;1991;48.682;9.030;2023-05-16T08:17:24;19.80;;;16.50;;
3953;SDS011;1991;48.682;9.030;2023-05-16T08:19:50;21.88;;;17.30;;
3953;SDS011;1991;48.682;9.030;2023-05-16T08:22:15;24.48;;;17.75;;
3953;SDS011;1991;48.682;9.030;2023-05-16T08:24:41;22.77;;;17.60;;
3953;SDS011;1991;48.682;9.030;2023-05-16T08:27:06;25.15;;;17.55;;
3953;SDS011;1991;48.682;9.030;2023-05-16T08:29:32;25.13;;;17.75;;
3953;SDS011;1991;48.682;9.030;2023-05-16T08:31:58;21.10;;;17.23;;
3953;SDS011;1991;48.682;9.030;2023-05-16T08:34:24;21.45;;;17.08;;
3953;SDS011;1991;48.682;9.030;2023-05-16T08:36:49;19.85;;;16.63;;
3953;SDS011;1991;48.682;9.030;2023-05-16T08:39:15;22.77;;;17.60;;
3953;SDS011;1991;48.682;9.030;2023-05-16T08:41:40;28.42;;;17.10;;
3953;SDS011;1991;48.682;9.030;2023-05-16T08:44:06;22.50;;;17.37;;
3953;SDS011;1991;48.682;9.030;2023-05-16T08:46:35;21.43;;;16.80;;
3953;SDS011;1991;48.682;9.030;2023-05-16T08:49:01;19.20;;;15.73;;
3953;SDS011;1991;48.682;9.030;2023-05-16T08:51:31;24.30;;;17.30;;
3953;SDS011;1991;48.682;9.030;2023-05-16T08:54:05;21.53;;;16.13;;
3953;SDS011;1991;48.682;9.030;2023-05-16T08:56:34;20.08;;;15.80;;
3953;SDS011;1991;48.682;9.030;2023-05-16T08:59:01;18.45;;;15.40;;
3953;SDS011;1991;48.682;9.030;2023-05-16T09:01:29;22.27;;;16.42;;
3953;SDS011;1991;48.682;9.030;2023-05-16T09:03:58;24.00;;;17.85;;
3953;SDS011;1991;48.682;9.030;2023-05-16T09:06:24;21.38;;;17.45;;
3953;SDS011;1991;48.682;9.030;2023-05-16T09:08:50;22.10;;;18.30;;
3953;SDS011;1991;48.682;9.030;2023-05-16T09:11:17;22.53;;;17.60;;
3953;SDS011;1991;48.682;9.030;2023-05-16T09:13:43;21.47;;;17.13;;
3953;SDS011;1991;48.682;9.030;2023-05-16T09:18:36;25.00;;;19.37;;
3953;SDS011;1991;48.682;9.030;2023-05-16T09:21:03;26.90;;;19.33;;
3953;SDS011;1991;48.682;9.030;2023-05-16T09:23:29;24.97;;;18.00;;
3953;SDS011;1991;48.682;9.030;2023-05-16T09:25:56;24.00;;;18.23;;
3953;SDS011;1991;48.682;9.030;2023-05-16T09:28:22;23.87;;;19.47;;
3953;SDS011;1991;48.682;9.030;2023-05-16T09:30:50;24.30;;;19.07;;
3953;SDS011;1991;48.682;9.030;2023-05-16T09:33:16;23.97;;;18.60;;
3953;SDS011;1991;48.682;9.030;2023-05-16T09:35:42;25.60;;;18.73;;
3953;SDS011;1991;48.682;9.030;2023-05-16T09:38:16;24.38;;;18.35;;
3953;SDS011;1991;48.682;9.030;2023-05-16T09:40:43;28.07;;;19.57;;
3953;SDS011;1991;48.682;9.030;2023-05-16T09:43:08;26.30;;;18.75;;
3953;SDS011;1991;48.682;9.030;2023-05-16T09:45:34;28.05;;;19.58;;
3953;SDS011;1991;48.682;9.030;2023-05-16T09:48:02;25.17;;;18.45;;
3953;SDS011;1991;48.682;9.030;2023-05-16T09:50:31;24.77;;;18.67;;
3953;SDS011;1991;48.682;9.030;2023-05-16T09:52:58;27.27;;;18.42;;
3953;SDS011;1991;48.682;9.030;2023-05-16T09:55:23;24.50;;;18.88;;
3953;SDS011;1991;48.682;9.030;2023-05-16T09:57:49;26.15;;;18.73;;
3953;SDS011;1991;48.682;9.030;2023-05-16T10:00:15;22.13;;;18.90;;
3953;SDS011;1991;48.682;9.030;2023-05-16T10:02:41;23.35;;;18.42;;
3953;SDS011;1991;48.682;9.030;2023-05-16T10:05:08;21.90;;;17.75;;
3953;SDS011;1991;48.682;9.030;2023-05-16T10:07:33;25.40;;;18.10;;
3953;SDS011;1991;48.682;9.030;2023-05-16T10:10:00;23.95;;;17.38;;
3953;SDS011;1991;48.682;9.030;2023-05-16T10:12:30;22.33;;;16.52;;
3953;SDS011;1991;48.682;9.030;2023-05-16T10:14:58;24.10;;;17.00;;
3953;SDS011;1991;48.682;9.030;2023-05-16T10:17:27;19.83;;;16.40;;
3953;SDS011;1991;48.682;9.030;2023-05-16T10:19:56;25.77;;;17.50;;
3953;SDS011;1991;48.682;9.030;2023-05-16T10:22:25;25.17;;;17.27;;
3953;SDS011;1991;48.682;9.030;2023-05-16T10:24:55;22.85;;;16.65;;
3953;SDS011;1991;48.682;9.030;2023-05-16T10:27:21;23.27;;;16.88;;
3953;SDS011;1991;48.682;9.030;2023-05-16T10:29:48;21.05;;;15.65;;
3953;SDS011;1991;48.682;9.030;2023-05-16T10:32:14;23.60;;;16.25;;
3953;SDS011;1991;48.682;9.030;2023-05-16T10:34:40;23.08;;;15.73;;
3953;SDS011;1991;48.682;9.030;2023-05-16T10:37:06;21.58;;;16.20;;
3953;SDS011;1991;48.682;9.030;2023-05-16T10:39:33;22.00;;;15.88;;
3953;SDS011;1991;48.682;9.030;2023-05-16T10:42:00;19.70;;;15.23;;
3953;SDS011;1991;48.682;9.030;2023-05-16T10:44:25;20.30;;;14.80;;
3953;SDS011;1991;48.682;9.030;2023-05-16T10:46:56;20.23;;;15.32;;
3953;SDS011;1991;48.682;9.030;2023-05-16T10:49:23;18.57;;;14.63;;
3953;SDS011;1991;48.682;9.030;2023-05-16T10:54:34;19.73;;;14.77;;
3953;SDS011;1991;48.682;9.030;2023-05-16T10:57:03;19.97;;;13.97;;
3953;SDS011;1991;48.682;9.030;2023-05-16T10:59:40;16.25;;;13.57;;
3953;SDS011;1991;48.682;9.030;2023-05-16T11:02:23;20.27;;;13.63;;
3953;SDS011;1991;48.682;9.030;2023-05-16T11:04:56;17.80;;;12.88;;
3953;SDS011;1991;48.682;9.030;2023-05-16T11:07:24;20.85;;;13.65;;
3953;SDS011;1991;48.682;9.030;2023-05-16T11:10:01;15.57;;;12.02;;
3953;SDS011;1991;48.682;9.030;2023-05-16T11:15:18;15.27;;;10.75;;
3953;SDS011;1991;48.682;9.030;2023-05-16T11:18:13;13.65;;;10.35;;
3953;SDS011;1991;48.682;9.030;2023-05-16T11:20:40;12.65;;;9.13;;
3953;SDS011;1991;48.682;9.030;2023-05-16T11:25:41;19.38;;;9.23;;
3953;SDS011;1991;48.682;9.030;2023-05-16T11:28:12;9.85;;;8.38;;
3953;SDS011;1991;48.682;9.030;2023-05-16T11:30:42;9.90;;;8.23;;
3953;SDS011;1991;48.682;9.030;2023-05-16T11:33:09;10.77;;;8.90;;
3953;SDS011;1991;48.682;9.030;2023-05-16T11:35:36;12.02;;;9.35;;
3953;SDS011;1991;48.682;9.030;2023-05-16T11:38:03;12.07;;;10.00;;
3953;SDS011;1991;48.682;9.030;2023-05-16T11:40:28;11.87;;;9.47;;
3953;SDS011;1991;48.682;9.030;2023-05-16T11:42:58;14.93;;;9.17;;
3953;SDS011;1991;48.682;9.030;2023-05-16T11:45:27;12.13;;;9.32;;
3953;SDS011;1991;48.682;9.030;2023-05-16T11:47:53;12.07;;;8.73;;
3953;SDS011;1991;48.682;9.030;2023-05-16T11:50:20;14.27;;;8.93;;
3953;SDS011;1991;48.682;9.030;2023-05-16T11:52:48;11.00;;;8.30;;
3953;SDS011;1991;48.682;9.030;2023-05-16T11:55:21;10.33;;;8.17;;
3953;SDS011;1991;48.682;9.030;2023-05-16T11:57:48;9.77;;;7.77;;
3953;SDS011;1991;48.682;9.030;2023-05-16T12:00:21;11.17;;;8.03;;
3953;SDS011;1991;48.682;9.030;2023-05-16T12:02:49;11.17;;;7.43;;
3953;SDS011;1991;48.682;9.030;2023-05-16T12:05:15;9.40;;;7.57;;
3953;SDS011;1991;48.682;9.030;2023-05-16T12:07:42;8.88;;;6.90;;
3953;SDS011;1991;48.682;9.030;2023-05-16T12:10:09;8.50;;;6.97;;
3953;SDS011;1991;48.682;9.030;2023-05-16T12:12:36;11.03;;;7.43;;
3953;SDS011;1991;48.682;9.030;2023-05-16T12:15:04;9.07;;;6.27;;
3953;SDS011;1991;48.682;9.030;2023-05-16T12:17:32;9.33;;;6.27;;
3953;SDS011;1991;48.682;9.030;2023-05-16T12:20:02;7.53;;;6.00;;
3953;SDS011;1991;48.682;9.030;2023-05-16T12:22:30;8.37;;;6.60;;
3953;SDS011;1991;48.682;9.030;2023-05-16T12:24:59;8.10;;;5.75;;
3953;SDS011;1991;48.682;9.030;2023-05-16T12:27:45;8.50;;;6.10;;
3953;SDS011;1991;48.682;9.030;2023-05-16T12:30:11;6.97;;;6.22;;
3953;SDS011;1991;48.682;9.030;2023-05-16T12:32:37;9.48;;;5.55;;
3953;SDS011;1991;48.682;9.030;2023-05-16T12:35:02;7.33;;;6.20;;
3953;SDS011;1991;48.682;9.030;2023-05-16T12:37:28;9.48;;;6.35;;
3953;SDS011;1991;48.682;9.030;2023-05-16T12:40:00;7.05;;;5.65;;
3953;SDS011;1991;48.682;9.030;2023-05-16T12:42:28;6.63;;;5.30;;
3953;SDS011;1991;48.682;9.030;2023-05-16T12:44:54;7.18;;;5.28;;
3953;SDS011;1991;48.682;9.030;2023-05-16T12:47:20;5.72;;;5.07;;
3953;SDS011;1991;48.682;9.030;2023-05-16T12:49:46;6.88;;;5.25;;
3953;SDS011;1991;48.682;9.030;2023-05-16T12:52:17;6.45;;;4.90;;
3953;SDS011;1991;48.682;9.030;2023-05-16T12:54:44;4.67;;;4.03;;
3953;SDS011;1991;48.682;9.030;2023-05-16T12:57:10;4.60;;;4.10;;
3953;SDS011;1991;48.682;9.030;2023-05-16T12:59:35;5.70;;;4.00;;
3953;SDS011;1991;48.682;9.030;2023-05-16T13:02:01;7.67;;;3.77;;
3953;SDS011;1991;48.682;9.030;2023-05-16T13:04:28;4.10;;;3.67;;
3953;SDS011;1991;48.682;9.030;2023-05-16T13:06:53;4.88;;;4.22;;
3953;SDS011;1991;48.682;9.030;2023-05-16T13:09:19;4.10;;;3.77;;
3953;SDS011;1991;48.682;9.030;2023-05-16T13:11:45;6.13;;;4.40;;
3953;SDS011;1991;48.682;9.030;2023-05-16T13:14:11;5.27;;;4.23;;
3953;SDS011;1991;48.682;9.030;2023-05-16T13:16:36;6.17;;;4.80;;
3953;SDS011;1991;48.682;9.030;2023-05-16T13:19:02;6.30;;;4.70;;
3953;SDS011;1991;48.682;9.030;2023-05-16T13:21:29;6.43;;;4.97;;
3953;SDS011;1991;48.682;9.030;2023-05-16T13:23:55;5.67;;;5.07;;
3953;SDS011;1991;48.682;9.030;2023-05-16T13:26:24;6.80;;;4.57;;
3953;SDS011;1991;48.682;9.030;2023-05-16T13:28:51;5.60;;;4.73;;
3953;SDS011;1991;48.682;9.030;2023-05-16T13:31:18;5.40;;;4.70;;
3953;SDS011;1991;48.682;9.030;2023-05-16T13:33:44;6.70;;;5.37;;
3953;SDS011;1991;48.682;9.030;2023-05-16T13:36:10;6.87;;;4.70;;
3953;SDS011;1991;48.682;9.030;2023-05-16T13:38:35;6.97;;;5.13;;
3953;SDS011;1991;48.682;9.030;2023-05-16T13:41:01;8.40;;;6.17;;
3953;SDS011;1991;48.682;9.030;2023-05-16T13:43:26;7.10;;;4.50;;
3953;SDS011;1991;48.682;9.030;2023-05-16T13:45:52;8.83;;;6.03;;
3953;SDS011;1991;48.682;9.030;2023-05-16T13:48:18;5.17;;;4.00;;
3953;SDS011;1991;48.682;9.030;2023-05-16T13:50:43;6.93;;;3.93;;
3953;SDS011;1991;48.682;9.030;2023-05-16T13:53:09;11.50;;;4.23;;
3953;SDS011;1991;48.682;9.030;2023-05-16T13:55:35;4.20;;;2.97;;
3953;SDS011;1991;48.682;9.030;2023-05-16T13:58:00;4.37;;;3.13;;
3953;SDS011;1991;48.682;9.030;2023-05-16T14:00:26;7.67;;;6.87;;
3953;SDS011;1991;48.682;9.030;2023-05-16T14:02:52;7.33;;;5.53;;
3953;SDS011;1991;48.682;9.030;2023-05-16T14:05:18;19.70;;;11.13;;
3953;SDS011;1991;48.682;9.030;2023-05-16T14:07:43;7.73;;;4.13;;
3953;SDS011;1991;48.682;9.030;2023-05-16T14:10:09;82.67;;;32.27;;
3953;SDS011;1991;48.682;9.030;2023-05-16T14:12:35;8.27;;;4.10;;
3953;SDS011;1991;48.682;9.030;2023-05-16T14:15:01;5.57;;;2.83;;
3953;SDS011;1991;48.682;9.030;2023-05-16T14:17:26;3.20;;;2.50;;
3953;SDS011;1991;48.682;9.030;2023-05-16T14:19:52;5.37;;;2.40;;
3953;SDS011;1991;48.682;9.030;2023-05-16T14:22:18;2.50;;;2.27;;
3953;SDS011;1991;48.682;9.030;2023-05-16T14:24:43;3.07;;;2.43;;
3953;SDS011;1991;48.682;9.030;2023-05-16T14:27:09;9.30;;;2.77;;
3953;SDS011;1991;48.682;9.030;2023-05-16T14:29:35;4.07;;;2.30;;
3953;SDS011;1991;48.682;9.030;2023-05-16T14:32:01;4.27;;;2.30;;
3953;SDS011;1991;48.682;9.030;2023-05-16T14:34:26;4.20;;;2.33;;
3953;SDS011;1991;48.682;9.030;2023-05-16T14:36:52;4.10;;;2.50;;
3953;SDS011;1991;48.682;9.030;2023-05-16T14:39:17;11.32;;;2.45;;
3953;SDS011;1991;48.682;9.030;2023-05-16T14:41:43;2.80;;;1.93;;
3953;SDS011;1991;48.682;9.030;2023-05-16T14:44:09;4.07;;;2.20;;
3953;SDS011;1991;48.682;9.030;2023-05-16T14:46:34;4.53;;;2.10;;
3953;SDS011;1991;48.682;9.030;2023-05-16T14:49:00;2.63;;;1.80;;
3953;SDS011;1991;48.682;9.030;2023-05-16T14:51:25;2.17;;;1.80;;
3953;SDS011;1991;48.682;9.030;2023-05-16T14:53:51;3.20;;;2.10;;
3953;SDS011;1991;48.682;9.030;2023-05-16T14:56:17;2.60;;;1.80;;
3953;SDS011;1991;48.682;9.030;2023-05-16T14:58:42;5.43;;;1.87;;
3953;SDS011;1991;48.682;9.030;2023-05-16T15:01:08;3.63;;;2.07;;
3953;SDS011;1991;48.682;9.030;2023-05-16T15:03:34;5.37;;;1.70;;
3953;SDS011;1991;48.682;9.030;2023-05-16T15:06:01;5.40;;;1.70;;
3953;SDS011;1991;48.682;9.030;2023-05-16T15:08:26;3.10;;;1.75;;
3953;SDS011;1991;48.682;9.030;2023-05-16T15:10:52;6.05;;;1.85;;
3953;SDS011;1991;48.682;9.030;2023-05-16T15:13:17;5.90;;;1.83;;
3953;SDS011;1991;48.682;9.030;2023-05-16T15:15:43;4.32;;;1.48;;